createdAt,value
2017-11-17T00:01:18.085Z,70.28
2017-11-17T00:03:45.757Z,69.85
2017-11-17T00:06:12.797Z,65.78
2017-11-17T00:08:39.496Z,62.55
2017-11-17T00:11:06.516Z,60.40
2017-11-17T00:13:34.055Z,78.78
2017-11-17T00:16:00.763Z,67.85
2017-11-17T00:18:29.248Z,61.28
2017-11-17T00:20:57.702Z,70.18
2017-11-17T00:23:24.444Z,70.68
2017-11-17T00:25:52.522Z,70.87
2017-11-17T00:28:20.004Z,80.75
2017-11-17T00:30:46.733Z,68.28
2017-11-17T00:33:14.350Z,76.85
2017-11-17T00:35:42.580Z,69.90
2017-11-17T00:38:09.368Z,71.07
2017-11-17T00:40:36.830Z,77.18
2017-11-17T00:43:04.395Z,67.87
2017-11-17T00:45:31.132Z,69.95
2017-11-17T00:47:58.056Z,60.42
2017-11-17T00:50:24.784Z,58.33
2017-11-17T00:52:52.876Z,70.28
2017-11-17T00:55:20.289Z,65.12
2017-11-17T00:57:48.839Z,59.03
2017-11-17T01:00:16.502Z,51.78
2017-11-17T01:02:44.314Z,49.00
2017-11-17T01:05:12.862Z,40.22
2017-11-17T01:07:39.773Z,48.20
2017-11-17T01:10:07.757Z,40.20
2017-11-17T01:12:34.481Z,46.20
2017-11-17T01:15:01.230Z,37.00
2017-11-17T01:17:27.948Z,40.12
2017-11-17T01:19:56.000Z,37.97
2017-11-17T01:22:23.105Z,37.22
2017-11-17T01:24:51.729Z,44.88
2017-11-17T01:27:20.026Z,41.85
2017-11-17T01:29:48.472Z,43.35
2017-11-17T01:32:16.121Z,42.10
2017-11-17T01:34:43.171Z,39.90
2017-11-17T01:37:10.890Z,50.58
2017-11-17T01:39:38.453Z,42.42
2017-11-17T01:42:06.161Z,47.47
2017-11-17T01:44:37.658Z,50.90
2017-11-17T01:47:05.516Z,55.63
2017-11-17T01:49:33.060Z,48.95
2017-11-17T01:52:00.514Z,41.08
2017-11-17T01:54:27.270Z,61.35
2017-11-17T01:56:55.440Z,44.80
2017-11-17T01:59:23.624Z,49.30
2017-11-17T02:01:51.332Z,53.60
2017-11-17T02:04:18.037Z,49.63
2017-11-17T02:06:46.091Z,52.13
2017-11-17T02:09:13.715Z,58.95
2017-11-17T02:11:41.724Z,51.42
2017-11-17T02:14:10.365Z,41.28
2017-11-17T02:16:38.717Z,38.55
2017-11-17T02:21:36.473Z,48.72
2017-11-17T02:24:03.594Z,46.25
2017-11-17T02:26:31.805Z,45.08
2017-11-17T02:28:58.857Z,43.20
2017-11-17T02:31:29.272Z,46.78
2017-11-17T02:33:56.586Z,57.97
2017-11-17T02:36:24.188Z,43.00
2017-11-17T02:38:50.937Z,42.22
2017-11-17T02:41:19.070Z,46.37
2017-11-17T02:43:46.015Z,43.40
2017-11-17T02:46:14.481Z,41.80
2017-11-17T02:48:43.968Z,41.47
2017-11-17T02:51:11.008Z,41.05
2017-11-17T02:53:40.397Z,45.28
2017-11-17T02:56:07.248Z,35.80
2017-11-17T02:58:34.162Z,37.55
2017-11-17T03:01:02.112Z,38.58
2017-11-17T03:06:04.744Z,33.33
2017-11-17T03:11:05.436Z,32.78
2017-11-17T03:13:32.209Z,34.85
2017-11-17T03:16:01.207Z,36.28
2017-11-17T03:18:28.288Z,40.47
2017-11-17T03:20:57.852Z,43.13
2017-11-17T03:23:24.996Z,39.30
2017-11-17T03:25:51.693Z,38.97
2017-11-17T03:28:18.411Z,37.85
2017-11-17T03:30:46.001Z,35.45
2017-11-17T03:33:12.845Z,37.85
2017-11-17T03:35:39.764Z,33.22
2017-11-17T03:38:07.493Z,33.03
2017-11-17T03:40:34.508Z,32.58
2017-11-17T03:43:01.217Z,39.75
2017-11-17T03:45:28.748Z,30.73
2017-11-17T03:47:56.139Z,40.88
2017-11-17T03:50:25.426Z,37.40
2017-11-17T03:52:52.159Z,38.97
2017-11-17T03:55:18.948Z,35.90
2017-11-17T03:57:46.695Z,33.47
2017-11-17T04:00:16.337Z,34.25
2017-11-17T04:02:45.686Z,33.67
2017-11-17T04:05:16.558Z,24.50
2017-11-17T04:07:43.259Z,22.62
2017-11-17T04:10:12.375Z,28.10
2017-11-17T04:12:39.085Z,27.62
2017-11-17T04:15:06.985Z,24.83
2017-11-17T04:17:34.483Z,24.55
2017-11-17T04:20:01.866Z,29.80
2017-11-17T04:22:30.023Z,33.38
2017-11-17T04:24:57.150Z,26.23
2017-11-17T04:27:23.868Z,27.52
2017-11-17T04:29:50.568Z,23.60
2017-11-17T04:32:17.280Z,23.20
2017-11-17T04:34:43.974Z,31.05
2017-11-17T04:37:10.688Z,30.50
2017-11-17T04:39:37.401Z,32.60
2017-11-17T04:42:04.633Z,34.05
2017-11-17T04:44:31.588Z,27.08
2017-11-17T04:46:59.510Z,30.05
2017-11-17T04:49:26.616Z,24.92
2017-11-17T04:51:53.322Z,27.17
2017-11-17T04:54:20.288Z,30.55
2017-11-17T04:56:48.974Z,29.15
2017-11-17T04:59:16.625Z,30.10
2017-11-17T05:01:44.601Z,30.85
2017-11-17T05:04:11.465Z,30.62
2017-11-17T05:06:39.544Z,32.65
2017-11-17T05:09:06.248Z,28.05
2017-11-17T05:11:33.791Z,32.00
2017-11-17T05:14:01.312Z,28.62
2017-11-17T05:16:28.800Z,28.52
2017-11-17T05:18:55.505Z,30.75
2017-11-17T05:21:22.532Z,25.55
2017-11-17T05:23:49.232Z,28.87
2017-11-17T05:26:16.737Z,28.77
2017-11-17T05:28:44.285Z,29.55
2017-11-17T05:31:11.903Z,31.90
2017-11-17T05:33:39.205Z,39.78
2017-11-17T05:36:05.906Z,39.15
2017-11-17T05:38:33.609Z,31.65
2017-11-17T05:41:01.366Z,35.20
2017-11-17T05:43:28.080Z,29.20
2017-11-17T05:45:55.093Z,32.47
2017-11-17T05:48:21.819Z,33.60
2017-11-17T05:53:21.392Z,20.48
2017-11-17T05:55:48.459Z,27.42
2017-11-17T05:58:16.504Z,25.98
2017-11-17T06:00:43.923Z,27.08
2017-11-17T06:03:10.608Z,23.27
2017-11-17T06:05:38.057Z,27.37
2017-11-17T06:08:06.004Z,21.15
2017-11-17T06:10:33.361Z,20.62
2017-11-17T06:13:01.896Z,26.62
2017-11-17T06:15:28.868Z,30.15
2017-11-17T06:17:59.264Z,42.17
2017-11-17T06:20:29.473Z,36.03
2017-11-17T06:22:58.354Z,40.20
2017-11-17T06:25:29.907Z,38.22
2017-11-17T06:27:58.558Z,49.67
2017-11-17T06:30:25.256Z,105.97
2017-11-17T06:32:51.965Z,38.38
2017-11-17T06:35:18.663Z,68.78
2017-11-17T06:37:45.379Z,121.68
2017-11-17T06:40:13.035Z,112.43
2017-11-17T06:42:39.750Z,56.45
2017-11-17T06:45:06.457Z,104.10
2017-11-17T06:47:33.165Z,70.85
2017-11-17T06:49:59.857Z,92.03
2017-11-17T06:52:26.556Z,88.95
2017-11-17T06:54:53.273Z,49.97
2017-11-17T06:57:19.961Z,75.05
2017-11-17T06:59:46.671Z,80.00
2017-11-17T07:02:13.596Z,36.67
2017-11-17T07:04:40.309Z,38.03
2017-11-17T07:07:06.996Z,37.63
2017-11-17T07:09:33.708Z,51.40
2017-11-17T07:14:56.004Z,59.50
2017-11-17T07:17:22.730Z,29.63
2017-11-17T07:19:49.485Z,41.83
2017-11-17T07:22:16.225Z,38.80
2017-11-17T07:24:43.793Z,50.55
2017-11-17T07:27:10.545Z,48.50
2017-11-17T07:29:37.273Z,38.40
2017-11-17T07:32:04.084Z,33.90
2017-11-17T07:34:30.826Z,42.60
2017-11-17T07:36:57.585Z,33.60
2017-11-17T07:39:24.347Z,36.53
2017-11-17T07:41:51.092Z,33.72
2017-11-17T07:46:53.407Z,38.15
2017-11-17T07:49:20.159Z,58.50
2017-11-17T07:51:46.875Z,35.88
2017-11-17T07:54:15.910Z,39.30
2017-11-17T07:56:42.659Z,38.38
2017-11-17T07:59:09.387Z,34.42
2017-11-17T08:01:36.156Z,28.67
2017-11-17T08:04:03.248Z,31.55
2017-11-17T08:06:29.995Z,20.98
2017-11-17T08:08:56.719Z,25.00
2017-11-17T08:11:27.840Z,43.50
2017-11-17T08:13:54.576Z,27.27
2017-11-17T08:16:21.313Z,30.73
2017-11-17T08:18:48.051Z,38.05
2017-11-17T08:21:14.791Z,33.20
2017-11-17T08:23:41.517Z,43.42
2017-11-17T08:26:08.266Z,24.85
2017-11-17T08:28:35.005Z,26.35
2017-11-17T08:31:01.770Z,22.67
2017-11-17T08:33:28.496Z,11.77
2017-11-17T08:35:55.254Z,14.82
2017-11-17T08:38:21.976Z,11.25
2017-11-17T08:40:50.057Z,12.73
2017-11-17T08:43:16.854Z,11.65
2017-11-17T08:45:48.085Z,20.37
2017-11-17T08:48:14.842Z,23.15
2017-11-17T08:50:41.832Z,19.05
2017-11-17T08:53:08.571Z,11.57
2017-11-17T09:01:13.009Z,14.07
2017-11-17T09:03:39.867Z,16.55
2017-11-17T09:06:07.271Z,12.60
2017-11-17T09:08:34.480Z,11.70
2017-11-17T09:11:02.620Z,11.07
2017-11-17T09:13:29.378Z,11.15
2017-11-17T09:15:56.091Z,8.70
2017-11-17T09:18:22.816Z,8.25
2017-11-17T09:20:49.565Z,14.18
2017-11-17T09:23:16.615Z,6.85
2017-11-17T09:25:43.372Z,7.45
2017-11-17T09:28:12.664Z,13.68
2017-11-17T09:30:39.944Z,9.40
2017-11-17T09:33:06.744Z,7.82
2017-11-17T09:35:33.452Z,8.98
2017-11-17T09:38:00.186Z,7.32
2017-11-17T09:40:26.976Z,8.25
2017-11-17T09:42:53.744Z,11.35
2017-11-17T09:45:21.361Z,8.10
2017-11-17T09:47:48.763Z,8.88
2017-11-17T09:50:15.559Z,8.40
2017-11-17T09:52:42.287Z,8.02
2017-11-17T09:55:11.589Z,10.23
2017-11-17T09:57:39.416Z,8.07
2017-11-17T10:00:07.405Z,15.80
2017-11-17T10:02:34.923Z,14.20
2017-11-17T10:07:33.391Z,8.60
2017-11-17T10:10:00.908Z,7.73
2017-11-17T10:12:29.479Z,10.70
2017-11-17T10:14:56.209Z,9.23
2017-11-17T10:17:23.949Z,10.90
2017-11-17T10:19:50.973Z,6.03
2017-11-17T10:22:17.937Z,8.47
2017-11-17T10:24:44.687Z,7.10
2017-11-17T10:27:12.244Z,7.75
2017-11-17T10:29:39.382Z,6.65
2017-11-17T10:32:06.158Z,6.60
2017-11-17T10:34:32.939Z,8.93
2017-11-17T10:36:59.703Z,8.00
2017-11-17T10:39:26.412Z,6.37
2017-11-17T10:41:53.177Z,7.85
2017-11-17T10:44:19.904Z,8.55
2017-11-17T10:46:46.623Z,7.70
2017-11-17T10:49:13.361Z,8.38
2017-11-17T10:51:40.116Z,8.77
2017-11-17T10:54:06.857Z,12.10
2017-11-17T10:56:34.268Z,6.82
2017-11-17T10:59:01.033Z,11.70
2017-11-17T11:01:31.357Z,8.10
2017-11-17T11:03:58.096Z,8.55
2017-11-17T11:06:24.861Z,9.35
2017-11-17T11:08:56.561Z,7.53
2017-11-17T11:11:29.076Z,7.07
2017-11-17T11:13:55.825Z,11.98
2017-11-17T11:16:22.556Z,8.65
2017-11-17T11:18:49.291Z,10.20
2017-11-17T11:21:16.032Z,10.02
2017-11-17T11:23:43.091Z,12.35
2017-11-17T11:26:09.835Z,13.15
2017-11-17T11:28:36.569Z,8.85
2017-11-17T11:31:03.321Z,8.70
2017-11-17T11:33:30.044Z,10.32
2017-11-17T11:35:56.785Z,13.52
2017-11-17T11:38:23.514Z,13.13
2017-11-17T11:40:50.256Z,11.90
2017-11-17T11:43:16.988Z,14.00
2017-11-17T11:45:43.729Z,11.90
2017-11-17T11:48:10.485Z,11.55
2017-11-17T11:50:37.205Z,14.13
2017-11-17T11:53:03.978Z,9.13
2017-11-17T11:55:30.671Z,8.70
2017-11-17T11:57:57.443Z,10.50
2017-11-17T12:00:24.172Z,8.70
2017-11-17T12:02:50.916Z,8.50
2017-11-17T12:05:17.632Z,7.90
2017-11-17T12:07:44.343Z,9.55
2017-11-17T12:10:11.072Z,7.78
2017-11-17T12:12:37.792Z,6.80
2017-11-17T12:15:04.532Z,8.95
2017-11-17T12:17:31.248Z,7.32
2017-11-17T12:19:57.992Z,10.18
2017-11-17T12:22:24.716Z,10.25
2017-11-17T12:24:51.458Z,9.40
2017-11-17T12:27:18.184Z,5.68
2017-11-17T12:29:46.540Z,15.20
2017-11-17T12:32:13.268Z,8.20
2017-11-17T12:34:40.664Z,13.00
2017-11-17T12:37:07.395Z,10.63
2017-11-17T12:39:34.112Z,8.48
2017-11-17T12:42:00.849Z,11.10
2017-11-17T12:44:31.065Z,13.88
2017-11-17T12:46:57.796Z,17.42
2017-11-17T12:49:26.136Z,8.73
2017-11-17T12:51:52.878Z,7.85
2017-11-17T12:55:00.871Z,7.43
2017-11-17T12:57:27.985Z,8.32
2017-11-17T12:59:54.719Z,9.15
2017-11-17T13:02:21.460Z,7.05
2017-11-17T13:04:48.205Z,8.20
2017-11-17T13:07:16.560Z,6.20
2017-11-17T13:09:43.300Z,11.02
2017-11-17T13:12:10.031Z,7.10
2017-11-17T13:14:36.766Z,5.20
2017-11-17T13:17:03.496Z,6.57
2017-11-17T13:19:30.215Z,8.40
2017-11-17T13:21:56.940Z,5.72
2017-11-17T13:24:23.685Z,6.20
2017-11-17T13:26:51.308Z,10.55
2017-11-17T13:29:21.653Z,6.78
2017-11-17T13:31:48.387Z,7.65
2017-11-17T13:34:15.128Z,6.10
2017-11-17T13:36:41.877Z,5.65
2017-11-17T13:39:08.613Z,6.22
2017-11-17T13:41:35.360Z,14.02
2017-11-17T13:44:02.100Z,7.05
2017-11-17T13:48:59.843Z,7.72
2017-11-17T13:51:26.617Z,6.53
2017-11-17T13:53:53.397Z,4.45
2017-11-17T13:56:20.180Z,6.68
2017-11-17T13:58:46.905Z,4.62
2017-11-17T14:01:13.670Z,11.43
2017-11-17T14:03:40.412Z,7.75
2017-11-17T14:08:38.353Z,13.88
2017-11-17T14:11:05.080Z,4.22
2017-11-17T14:13:31.820Z,7.03
2017-11-17T14:15:58.536Z,7.18
2017-11-17T14:18:25.269Z,3.35
2017-11-17T14:20:52.012Z,4.97
2017-11-17T14:23:18.749Z,4.50
2017-11-17T14:25:45.472Z,4.05
2017-11-17T14:28:13.004Z,5.22
2017-11-17T14:30:39.740Z,7.18
2017-11-17T14:33:06.478Z,3.92
2017-11-17T14:35:33.225Z,4.18
2017-11-17T14:37:59.988Z,8.02
2017-11-17T14:40:26.722Z,5.90
2017-11-17T14:42:53.447Z,12.15
2017-11-17T14:45:20.172Z,7.25
2017-11-17T14:47:48.540Z,4.22
2017-11-17T14:50:15.281Z,3.08
2017-11-17T14:52:42.037Z,3.55
2017-11-17T14:55:13.149Z,7.37
2017-11-17T14:57:43.486Z,5.00
2017-11-17T15:02:46.384Z,7.85
2017-11-17T15:05:13.136Z,4.43
2017-11-17T15:07:39.883Z,5.05
2017-11-17T15:10:06.652Z,7.72
2017-11-17T15:12:34.179Z,11.98
2017-11-17T15:15:00.900Z,5.30
2017-11-17T15:17:27.667Z,5.68
2017-11-17T15:19:54.401Z,5.95
2017-11-17T15:22:21.141Z,3.47
2017-11-17T15:24:47.873Z,5.93
2017-11-17T15:27:14.637Z,5.55
2017-11-17T15:29:41.377Z,4.20
2017-11-17T15:32:08.097Z,5.97
2017-11-17T15:34:34.836Z,4.87
2017-11-17T15:37:01.576Z,7.65
2017-11-17T15:39:28.299Z,9.15
2017-11-17T15:41:55.792Z,4.78
2017-11-17T15:44:22.538Z,10.80
2017-11-17T15:46:52.213Z,10.32
2017-11-17T15:49:20.708Z,8.48
2017-11-17T15:51:47.453Z,6.40
2017-11-17T15:54:14.220Z,4.85
2017-11-17T15:56:40.956Z,7.12
2017-11-17T15:59:07.676Z,8.18
2017-11-17T16:01:35.284Z,8.52
2017-11-17T16:04:02.037Z,5.87
2017-11-17T16:06:28.781Z,9.73
2017-11-17T16:08:55.520Z,12.43
2017-11-17T16:11:22.317Z,8.75
2017-11-17T16:13:49.096Z,7.30
2017-11-17T16:16:15.852Z,9.30
2017-11-17T16:18:42.596Z,7.57
2017-11-17T16:21:09.352Z,11.02
2017-11-17T16:23:36.131Z,7.93
2017-11-17T16:26:02.867Z,9.13
2017-11-17T16:28:29.632Z,9.32
2017-11-17T16:30:56.637Z,12.27
2017-11-17T16:33:23.473Z,10.68
2017-11-17T16:35:50.290Z,13.23
2017-11-17T16:38:17.032Z,12.68
2017-11-17T16:40:43.783Z,10.05
2017-11-17T16:43:10.516Z,15.70
2017-11-17T16:45:37.259Z,11.80
2017-11-17T16:48:04.065Z,13.50
2017-11-17T16:50:30.801Z,15.75
2017-11-17T16:52:57.552Z,13.80
2017-11-17T16:55:24.312Z,12.27
2017-11-17T16:57:51.055Z,18.50
2017-11-17T17:00:17.773Z,15.10
2017-11-17T17:02:44.800Z,13.75
2017-11-17T17:05:11.557Z,12.98
2017-11-17T17:07:38.320Z,10.15
2017-11-17T17:10:05.073Z,12.30
2017-11-17T17:12:31.829Z,16.48
2017-11-17T17:14:58.536Z,17.15
2017-11-17T17:17:27.220Z,14.85
2017-11-17T17:19:53.985Z,14.27
2017-11-17T17:22:20.725Z,13.30
2017-11-17T17:24:47.488Z,14.30
2017-11-17T17:27:14.275Z,15.32
2017-11-17T17:29:41.056Z,10.02
2017-11-17T17:32:07.800Z,12.68
2017-11-17T17:34:34.579Z,13.27
2017-11-17T17:37:01.300Z,15.40
2017-11-17T17:39:28.096Z,13.27
2017-11-17T17:41:54.886Z,16.05
2017-11-17T17:44:21.704Z,10.52
2017-11-17T17:46:48.466Z,10.93
2017-11-17T17:49:16.903Z,7.70
2017-11-17T17:51:43.660Z,12.37
2017-11-17T17:54:10.788Z,11.10
2017-11-17T17:56:37.604Z,12.43
2017-11-17T17:59:04.378Z,11.38
2017-11-17T18:01:31.218Z,12.48
2017-11-17T18:03:58.021Z,10.20
2017-11-17T18:06:24.788Z,14.55
2017-11-17T18:08:51.556Z,11.98
2017-11-17T18:11:18.315Z,12.88
2017-11-17T18:13:45.341Z,10.43
2017-11-17T18:16:12.105Z,13.52
2017-11-17T18:18:38.854Z,16.17
2017-11-17T18:21:05.664Z,12.48
2017-11-17T18:23:32.439Z,15.02
2017-11-17T18:25:59.188Z,12.75
2017-11-17T18:28:25.906Z,16.02
2017-11-17T18:30:52.660Z,14.07
2017-11-17T18:33:19.391Z,16.37
2017-11-17T18:35:46.126Z,18.73
2017-11-17T18:38:12.838Z,15.95
2017-11-17T18:40:39.551Z,14.07
2017-11-17T18:43:06.251Z,18.60
2017-11-17T18:45:34.300Z,13.27
2017-11-17T18:48:01.049Z,10.68
2017-11-17T18:50:30.752Z,17.20
2017-11-17T18:52:57.515Z,12.65
2017-11-17T18:55:24.276Z,21.87
2017-11-17T18:57:50.955Z,14.75
2017-11-17T19:00:17.668Z,15.75
2017-11-17T19:02:44.802Z,15.48
2017-11-17T19:05:11.517Z,14.60
2017-11-17T19:07:38.214Z,16.35
2017-11-17T19:10:04.932Z,15.68
2017-11-17T19:12:31.624Z,13.90
2017-11-17T19:14:58.380Z,14.85
2017-11-17T19:17:25.037Z,12.88
2017-11-17T19:19:51.755Z,13.95
2017-11-17T19:22:18.447Z,13.15
2017-11-17T19:24:45.156Z,11.60
2017-11-17T19:27:11.845Z,12.30
2017-11-17T19:29:38.545Z,14.27
2017-11-17T19:32:05.228Z,12.77
2017-11-17T19:34:33.675Z,11.32
2017-11-17T19:37:00.566Z,12.60
2017-11-17T19:39:27.274Z,11.15
2017-11-17T19:41:53.959Z,12.93
2017-11-17T19:44:20.647Z,8.95
2017-11-17T19:46:47.353Z,11.52
2017-11-17T19:49:14.031Z,14.95
2017-11-17T19:51:40.746Z,10.18
2017-11-17T19:54:07.436Z,6.70
2017-11-17T19:56:34.534Z,10.68
2017-11-17T19:59:01.221Z,8.10
2017-11-17T20:01:27.974Z,10.05
2017-11-17T20:03:54.695Z,9.43
2017-11-17T20:06:21.389Z,13.15
2017-11-17T20:08:48.411Z,12.90
2017-11-17T20:11:15.109Z,13.27
2017-11-17T20:13:41.818Z,10.10
2017-11-17T20:16:08.540Z,8.82
2017-11-17T20:18:35.225Z,11.55
2017-11-17T20:21:01.935Z,10.63
2017-11-17T20:23:28.617Z,9.88
2017-11-17T20:25:55.324Z,8.55
2017-11-17T20:28:22.005Z,7.12
2017-11-17T20:30:48.705Z,9.55
2017-11-17T20:33:15.411Z,10.50
2017-11-17T20:35:42.120Z,10.23
2017-11-17T20:38:08.817Z,12.57
2017-11-17T20:40:35.529Z,8.60
2017-11-17T20:43:02.224Z,14.18
2017-11-17T20:45:29.249Z,10.90
2017-11-17T20:47:55.937Z,10.40
2017-11-17T20:50:22.632Z,8.93
2017-11-17T20:52:49.371Z,14.05
2017-11-17T20:55:16.073Z,8.23
2017-11-17T20:57:42.792Z,9.40
2017-11-17T21:00:09.472Z,11.18
2017-11-17T21:02:36.179Z,14.07
2017-11-17T21:05:02.868Z,11.52
2017-11-17T21:07:29.574Z,12.23
2017-11-17T21:09:56.252Z,9.80
2017-11-17T21:12:22.968Z,13.00
2017-11-17T21:14:49.654Z,8.18
2017-11-17T21:17:16.368Z,10.80
2017-11-17T21:19:43.061Z,7.20
2017-11-17T21:22:09.763Z,9.85
2017-11-17T21:24:36.507Z,6.20
2017-11-17T21:27:03.221Z,6.15
2017-11-17T21:29:29.928Z,8.85
2017-11-17T21:31:56.605Z,6.15
2017-11-17T21:34:23.314Z,5.93
2017-11-17T21:36:50.013Z,5.78
2017-11-17T21:39:16.694Z,9.23
2017-11-17T21:41:43.468Z,6.70
2017-11-17T21:44:10.151Z,9.15
2017-11-17T21:46:36.867Z,9.18
2017-11-17T21:49:04.408Z,8.75
2017-11-17T21:51:31.109Z,5.22
2017-11-17T21:53:58.150Z,5.78
2017-11-17T21:56:24.857Z,7.00
2017-11-17T21:58:51.537Z,8.60
2017-11-17T22:01:18.237Z,7.97
2017-11-17T22:03:45.251Z,6.40
2017-11-17T22:06:11.957Z,10.88
2017-11-17T22:08:38.643Z,8.07
2017-11-17T22:11:05.340Z,6.00
2017-11-17T22:13:32.045Z,9.43
2017-11-17T22:15:58.725Z,6.70
2017-11-17T22:18:25.444Z,9.18
2017-11-17T22:20:52.132Z,5.75
2017-11-17T22:23:18.833Z,6.18
2017-11-17T22:25:45.512Z,7.55
2017-11-17T22:28:12.220Z,8.98
2017-11-17T22:30:39.693Z,5.87
2017-11-17T22:33:06.467Z,10.05
2017-11-17T22:35:33.207Z,10.25
2017-11-17T22:37:59.923Z,8.43
2017-11-17T22:40:26.634Z,11.23
2017-11-17T22:42:53.366Z,10.05
2017-11-17T22:45:20.126Z,10.00
2017-11-17T22:47:47.160Z,8.82
2017-11-17T22:50:13.869Z,11.02
2017-11-17T22:52:40.553Z,6.20
2017-11-17T22:55:07.224Z,8.32
2017-11-17T22:57:33.928Z,8.80
2017-11-17T23:00:00.613Z,7.32
2017-11-17T23:02:27.312Z,5.95
2017-11-17T23:04:53.997Z,8.43
2017-11-17T23:07:20.708Z,8.38
2017-11-17T23:09:47.393Z,5.85
2017-11-17T23:12:14.103Z,6.47
2017-11-17T23:14:40.789Z,4.93
2017-11-17T23:17:07.464Z,7.28
2017-11-17T23:19:34.173Z,6.93
2017-11-17T23:22:01.302Z,10.05
2017-11-17T23:24:28.009Z,9.30
2017-11-17T23:26:54.692Z,8.65
2017-11-17T23:29:21.722Z,9.80
2017-11-17T23:31:48.428Z,6.53
2017-11-17T23:34:15.136Z,10.55
2017-11-17T23:36:41.820Z,6.47
2017-11-17T23:39:08.504Z,12.43
2017-11-17T23:41:35.197Z,8.80
2017-11-17T23:44:01.875Z,10.88
2017-11-17T23:46:28.572Z,9.73
2017-11-17T23:48:55.267Z,12.05
2017-11-17T23:51:21.976Z,7.03
2017-11-17T23:53:48.650Z,8.32
2017-11-17T23:56:15.361Z,7.62
2017-11-17T23:58:42.052Z,19.12
